createdAt,value
2017-04-17T00:00:07.579Z,0
2017-04-17T00:01:20.795Z,0
2017-04-17T00:02:33.518Z,0
2017-04-17T00:03:46.758Z,0
2017-04-17T00:04:59.994Z,0
2017-04-17T00:06:13.239Z,0
2017-04-17T00:07:25.967Z,0
2017-04-17T00:08:39.224Z,0
2017-04-17T00:09:52.625Z,0
2017-04-17T00:11:06.002Z,0
2017-04-17T00:12:19.267Z,0
2017-04-17T00:13:32.476Z,0
2017-04-17T00:14:45.739Z,0
2017-04-17T00:15:58.469Z,0
2017-04-17T00:17:11.188Z,0
2017-04-17T00:18:24.452Z,0
2017-04-17T00:19:37.704Z,0
2017-04-17T00:20:50.909Z,0
2017-04-17T00:22:03.629Z,0
2017-04-17T00:23:16.383Z,0
2017-04-17T00:24:29.635Z,0
2017-04-17T00:25:42.869Z,0
2017-04-17T00:26:56.093Z,0
2017-04-17T00:28:09.338Z,0
2017-04-17T00:29:22.058Z,0
2017-04-17T00:30:35.291Z,0
2017-04-17T00:31:48.533Z,0
2017-04-17T00:33:01.780Z,0
2017-04-17T00:34:13.995Z,0
2017-04-17T00:35:27.242Z,0
2017-04-17T00:36:40.447Z,0
2017-04-17T00:37:53.662Z,0
2017-04-17T00:39:07.063Z,0
2017-04-17T00:40:20.309Z,0
2017-04-17T00:41:33.551Z,0
2017-04-17T00:42:46.789Z,0
2017-04-17T00:44:00.015Z,0
2017-04-17T00:45:13.309Z,0
2017-04-17T00:46:26.049Z,0
2017-04-17T00:47:39.271Z,0
2017-04-17T00:48:52.558Z,0
2017-04-17T00:50:05.791Z,0
2017-04-17T00:51:19.089Z,0
2017-04-17T00:52:32.379Z,0
2017-04-17T00:53:45.097Z,0
2017-04-17T00:54:58.038Z,0
2017-04-17T00:56:10.774Z,0
2017-04-17T00:57:24.004Z,0
2017-04-17T00:58:37.275Z,0
2017-04-17T00:59:50.503Z,0
2017-04-17T01:01:03.755Z,0
2017-04-17T01:02:16.502Z,0
2017-04-17T01:03:29.743Z,0
2017-04-17T01:04:43.027Z,0
2017-04-17T01:05:56.260Z,0
2017-04-17T01:07:09.536Z,0
2017-04-17T01:08:22.278Z,0
2017-04-17T01:09:35.511Z,0
2017-04-17T01:10:49.032Z,0
2017-04-17T01:12:02.271Z,0
2017-04-17T01:13:15.535Z,0
2017-04-17T01:14:28.742Z,0
2017-04-17T01:15:41.465Z,0
2017-04-17T01:16:54.680Z,0
2017-04-17T01:18:07.922Z,0
2017-04-17T01:19:21.185Z,0
2017-04-17T01:20:34.410Z,0
2017-04-17T01:21:47.629Z,0
2017-04-17T01:23:00.886Z,0
2017-04-17T01:24:14.119Z,0
2017-04-17T01:25:27.396Z,0
2017-04-17T01:26:40.653Z,0
2017-04-17T01:27:53.913Z,0
2017-04-17T01:29:07.187Z,0
2017-04-17T01:30:19.909Z,0
2017-04-17T01:31:33.178Z,0
2017-04-17T01:32:46.436Z,0
2017-04-17T01:33:59.651Z,0
2017-04-17T01:35:12.886Z,0
2017-04-17T01:36:26.101Z,0
2017-04-17T01:37:39.362Z,0
2017-04-17T01:38:52.605Z,0
2017-04-17T01:40:05.831Z,0
2017-04-17T01:41:18.533Z,0
2017-04-17T01:42:31.761Z,0
2017-04-17T01:43:45.002Z,0
2017-04-17T01:44:58.242Z,0
2017-04-17T01:46:10.454Z,0
2017-04-17T01:47:23.193Z,0
2017-04-17T01:48:36.441Z,0
2017-04-17T01:49:49.695Z,0
2017-04-17T01:51:02.925Z,0
2017-04-17T01:52:16.183Z,0
2017-04-17T01:53:29.445Z,0
2017-04-17T01:54:42.909Z,0
2017-04-17T01:55:56.180Z,0
2017-04-17T01:57:08.915Z,0
2017-04-17T01:58:21.632Z,0
2017-04-17T01:59:34.844Z,0
2017-04-17T02:00:48.090Z,0
2017-04-17T02:02:01.306Z,0
2017-04-17T02:03:14.576Z,0
2017-04-17T02:04:27.812Z,0
2017-04-17T02:05:41.054Z,0
2017-04-17T02:06:54.280Z,0
2017-04-17T02:08:07.716Z,0
2017-04-17T02:09:21.117Z,0
2017-04-17T02:10:34.375Z,0
2017-04-17T02:11:47.609Z,0
2017-04-17T02:13:00.835Z,0
2017-04-17T02:14:13.549Z,0
2017-04-17T02:15:26.787Z,0
2017-04-17T02:16:40.017Z,0
2017-04-17T02:17:53.324Z,0
2017-04-17T02:19:06.550Z,0
2017-04-17T02:20:19.281Z,0
2017-04-17T02:21:31.992Z,0
2017-04-17T02:22:44.741Z,0
2017-04-17T02:23:57.961Z,0
2017-04-17T02:25:10.690Z,0
2017-04-17T02:26:23.400Z,0
2017-04-17T02:27:36.617Z,0
2017-04-17T02:28:49.874Z,0
2017-04-17T02:30:02.071Z,0
2017-04-17T02:31:15.277Z,0
2017-04-17T02:32:28.016Z,0
2017-04-17T02:33:40.713Z,0
2017-04-17T02:34:53.985Z,0
2017-04-17T02:36:07.260Z,0
2017-04-17T02:37:20.510Z,0
2017-04-17T02:38:33.742Z,0
2017-04-17T02:39:46.969Z,0
2017-04-17T02:41:00.196Z,0
2017-04-17T02:42:12.957Z,0
2017-04-17T02:43:26.199Z,0
2017-04-17T02:44:39.426Z,0
2017-04-17T02:45:52.718Z,0
2017-04-17T02:47:05.438Z,0
2017-04-17T02:48:17.640Z,0
2017-04-17T02:49:30.397Z,0
2017-04-17T02:50:43.654Z,0
2017-04-17T02:51:56.866Z,0
2017-04-17T02:53:10.102Z,0
2017-04-17T02:54:22.834Z,0
2017-04-17T02:55:36.057Z,0
2017-04-17T02:56:49.321Z,0
2017-04-17T02:58:01.524Z,0
2017-04-17T02:59:14.749Z,0
2017-04-17T03:00:27.977Z,0
2017-04-17T03:01:41.256Z,0
2017-04-17T03:02:54.506Z,0
2017-04-17T03:04:07.715Z,0
2017-04-17T03:05:20.976Z,0
2017-04-17T03:06:34.250Z,0
2017-04-17T03:07:47.775Z,0
2017-04-17T03:09:01.000Z,0
2017-04-17T03:10:13.753Z,0
2017-04-17T03:11:27.018Z,0
2017-04-17T03:12:39.741Z,0
2017-04-17T03:13:52.950Z,0
2017-04-17T03:15:06.143Z,0
2017-04-17T03:16:18.846Z,0
2017-04-17T03:17:32.062Z,0
2017-04-17T03:18:45.311Z,0
2017-04-17T03:19:58.550Z,0
2017-04-17T03:21:11.772Z,0
2017-04-17T03:22:24.517Z,0
2017-04-17T03:23:37.725Z,0
2017-04-17T03:24:50.980Z,0
2017-04-17T03:26:04.239Z,0
2017-04-17T03:27:16.450Z,0
2017-04-17T03:28:29.695Z,0
2017-04-17T03:29:42.961Z,0
2017-04-17T03:30:56.267Z,0
2017-04-17T03:32:08.992Z,0
2017-04-17T03:33:22.262Z,0
2017-04-17T03:34:35.514Z,0
2017-04-17T03:35:48.763Z,0
2017-04-17T03:37:02.262Z,0
2017-04-17T03:38:15.219Z,0
2017-04-17T03:39:28.476Z,0
2017-04-17T03:40:41.696Z,0
2017-04-17T03:41:54.932Z,0
2017-04-17T03:43:08.192Z,0
2017-04-17T03:44:20.916Z,0
2017-04-17T03:45:34.152Z,0
2017-04-17T03:46:47.374Z,0
2017-04-17T03:48:00.614Z,0
2017-04-17T03:49:13.345Z,0
2017-04-17T03:50:26.068Z,0
2017-04-17T03:51:39.260Z,0
2017-04-17T03:52:52.653Z,0
2017-04-17T03:54:06.066Z,0
2017-04-17T03:55:19.330Z,0
2017-04-17T03:56:32.582Z,0
2017-04-17T03:57:45.836Z,0
2017-04-17T03:58:59.047Z,0
2017-04-17T04:00:12.286Z,0
2017-04-17T04:01:25.498Z,0
2017-04-17T04:02:38.739Z,0
2017-04-17T04:03:51.971Z,0
2017-04-17T04:05:05.211Z,0
2017-04-17T04:06:17.961Z,0
2017-04-17T04:07:31.361Z,0
2017-04-17T04:08:44.567Z,0
2017-04-17T04:09:57.797Z,0
2017-04-17T04:11:11.023Z,0
2017-04-17T04:12:24.236Z,0
2017-04-17T04:13:37.478Z,0
2017-04-17T04:14:50.705Z,0
2017-04-17T04:16:03.937Z,0
2017-04-17T04:17:16.675Z,0
2017-04-17T04:18:29.934Z,0
2017-04-17T04:19:43.195Z,0
2017-04-17T04:20:56.437Z,0
2017-04-17T04:22:09.136Z,0
2017-04-17T04:23:22.421Z,0
2017-04-17T04:24:35.695Z,0
2017-04-17T04:25:48.946Z,0
2017-04-17T04:27:02.186Z,0
2017-04-17T04:28:14.413Z,0
2017-04-17T04:29:27.649Z,0
2017-04-17T04:30:40.873Z,0
2017-04-17T04:31:54.126Z,0
2017-04-17T04:33:07.371Z,0
2017-04-17T04:34:20.058Z,0
2017-04-17T04:35:33.290Z,0
2017-04-17T04:36:46.498Z,0
2017-04-17T04:37:59.765Z,0
2017-04-17T04:39:12.519Z,0
2017-04-17T04:40:25.241Z,0
2017-04-17T04:41:38.518Z,0
2017-04-17T04:42:51.249Z,0
2017-04-17T04:44:04.479Z,0
2017-04-17T04:45:17.703Z,0
2017-04-17T04:46:30.955Z,0
2017-04-17T04:47:44.176Z,0
2017-04-17T04:48:56.946Z,0
2017-04-17T04:50:10.193Z,0
2017-04-17T04:51:23.500Z,0
2017-04-17T04:52:36.756Z,0
2017-04-17T04:53:50.371Z,0
2017-04-17T04:55:03.589Z,0
2017-04-17T04:56:16.825Z,0
2017-04-17T04:57:30.141Z,0
2017-04-17T04:58:43.413Z,0
2017-04-17T04:59:56.709Z,0
2017-04-17T05:01:09.937Z,0
2017-04-17T05:02:22.643Z,0
2017-04-17T05:03:35.874Z,0
2017-04-17T05:04:49.104Z,0
2017-04-17T05:06:02.374Z,0
2017-04-17T05:07:15.632Z,0
2017-04-17T05:08:28.908Z,0
2017-04-17T05:09:42.177Z,0
2017-04-17T05:10:55.411Z,0
2017-04-17T05:12:08.651Z,0
2017-04-17T05:13:21.932Z,0
2017-04-17T05:14:35.150Z,0
2017-04-17T05:15:48.430Z,0
2017-04-17T05:17:01.675Z,0
2017-04-17T05:18:14.401Z,0
2017-04-17T05:19:27.641Z,0
2017-04-17T05:20:40.366Z,0
2017-04-17T05:21:53.613Z,0
2017-04-17T05:23:06.819Z,0
2017-04-17T05:24:20.011Z,0
2017-04-17T05:25:33.371Z,0
2017-04-17T05:26:46.640Z,0
2017-04-17T05:27:59.926Z,0
2017-04-17T05:29:13.193Z,0
2017-04-17T05:30:26.433Z,0
2017-04-17T05:31:39.656Z,0
2017-04-17T05:32:52.890Z,0
2017-04-17T05:34:06.099Z,0
2017-04-17T05:35:18.807Z,0
2017-04-17T05:36:32.017Z,0
2017-04-17T05:37:45.258Z,0
2017-04-17T05:38:58.508Z,0
2017-04-17T05:40:11.456Z,0
2017-04-17T05:41:24.179Z,0
2017-04-17T05:42:37.434Z,0
2017-04-17T05:43:50.715Z,0
2017-04-17T05:45:03.931Z,0
2017-04-17T05:46:16.685Z,0
2017-04-17T05:47:29.923Z,0
2017-04-17T05:48:43.160Z,0
2017-04-17T05:49:56.391Z,0
2017-04-17T05:51:09.100Z,0
2017-04-17T05:52:22.361Z,0
2017-04-17T05:53:35.578Z,0
2017-04-17T05:54:48.829Z,0
2017-04-17T05:56:02.223Z,0
2017-04-17T05:57:15.466Z,0
2017-04-17T05:58:28.690Z,0
2017-04-17T05:59:41.925Z,0
2017-04-17T06:00:55.177Z,0
2017-04-17T06:02:08.395Z,0
2017-04-17T06:03:21.131Z,0
2017-04-17T06:04:34.345Z,0
2017-04-17T06:05:47.584Z,0
2017-04-17T06:07:00.848Z,0
2017-04-17T06:08:13.562Z,0
2017-04-17T06:09:26.870Z,0
2017-04-17T06:10:39.625Z,0
2017-04-17T06:11:52.859Z,0
2017-04-17T06:13:06.486Z,0
2017-04-17T06:14:19.282Z,0
2017-04-17T06:15:32.529Z,0
2017-04-17T06:16:45.759Z,0
2017-04-17T06:17:58.985Z,0
2017-04-17T06:19:12.235Z,0
2017-04-17T06:20:25.482Z,0
2017-04-17T06:21:38.688Z,0
2017-04-17T06:22:51.932Z,0
2017-04-17T06:24:05.153Z,0
2017-04-17T06:25:17.862Z,0
2017-04-17T06:26:31.113Z,0
2017-04-17T06:27:44.567Z,0
2017-04-17T06:28:57.806Z,0
2017-04-17T06:30:10.566Z,0
2017-04-17T06:31:23.820Z,0
2017-04-17T06:32:37.092Z,0
2017-04-17T06:33:50.354Z,0
2017-04-17T06:35:03.627Z,0
2017-04-17T06:36:16.855Z,0
2017-04-17T06:37:30.098Z,0
2017-04-17T06:38:43.392Z,0
2017-04-17T06:39:56.684Z,0
2017-04-17T06:41:09.441Z,0
2017-04-17T06:42:22.362Z,0
2017-04-17T06:43:35.583Z,0
2017-04-17T06:44:48.816Z,0
2017-04-17T06:46:02.055Z,0
2017-04-17T06:47:14.779Z,0
2017-04-17T06:48:28.069Z,0
2017-04-17T06:49:40.823Z,0
2017-04-17T06:50:54.033Z,0
2017-04-17T06:52:07.281Z,0
2017-04-17T06:53:19.990Z,0
2017-04-17T06:54:33.285Z,0
2017-04-17T06:55:46.544Z,0
2017-04-17T06:57:00.078Z,0
2017-04-17T06:58:13.399Z,0
2017-04-17T06:59:26.658Z,0
2017-04-17T07:00:39.897Z,0
2017-04-17T07:01:53.144Z,0
2017-04-17T07:03:06.360Z,0
2017-04-17T07:04:19.078Z,0
2017-04-17T07:05:32.271Z,0
2017-04-17T07:06:45.520Z,0
2017-04-17T07:07:58.756Z,0
2017-04-17T07:09:12.010Z,0
2017-04-17T07:10:25.281Z,0
2017-04-17T07:11:38.525Z,0
2017-04-17T07:12:51.920Z,0
2017-04-17T07:14:05.161Z,0
2017-04-17T07:15:16.866Z,0
2017-04-17T07:16:29.613Z,0
2017-04-17T07:17:42.851Z,0
2017-04-17T07:18:56.097Z,0
2017-04-17T07:20:08.860Z,0
2017-04-17T07:21:22.119Z,0
2017-04-17T07:22:35.340Z,0
2017-04-17T07:23:48.558Z,0
2017-04-17T07:25:01.771Z,0
2017-04-17T07:26:14.497Z,0
2017-04-17T07:27:27.197Z,0
2017-04-17T07:28:40.435Z,0
2017-04-17T07:29:53.971Z,0
2017-04-17T07:31:07.347Z,0
2017-04-17T07:32:20.605Z,0
2017-04-17T07:33:33.858Z,0
2017-04-17T07:34:47.119Z,0
2017-04-17T07:36:00.327Z,0
2017-04-17T07:37:13.556Z,0
2017-04-17T07:38:26.783Z,0
2017-04-17T07:39:40.013Z,0
2017-04-17T07:40:53.258Z,0
2017-04-17T07:42:06.527Z,0
2017-04-17T07:43:19.741Z,0
2017-04-17T07:44:33.035Z,0
2017-04-17T07:45:46.273Z,0
2017-04-17T07:46:59.539Z,0
2017-04-17T07:48:12.850Z,0
2017-04-17T07:49:26.090Z,0
2017-04-17T07:50:39.354Z,0
2017-04-17T07:51:52.655Z,0
2017-04-17T07:53:05.902Z,0
2017-04-17T07:54:18.125Z,0
2017-04-17T07:55:31.395Z,0
2017-04-17T07:56:44.146Z,0
2017-04-17T07:57:56.406Z,0
2017-04-17T07:59:09.684Z,0
2017-04-17T08:00:22.473Z,0
2017-04-17T08:01:35.899Z,0
2017-04-17T08:02:49.159Z,0
2017-04-17T08:04:02.430Z,0
2017-04-17T08:05:15.662Z,0
2017-04-17T08:06:28.894Z,0
2017-04-17T08:07:42.136Z,0
2017-04-17T08:08:54.842Z,0
2017-04-17T08:10:07.549Z,0
2017-04-17T08:11:20.790Z,0
2017-04-17T08:12:34.025Z,0
2017-04-17T08:13:47.249Z,0
2017-04-17T08:15:00.504Z,0
2017-04-17T08:16:13.237Z,0
2017-04-17T08:17:25.965Z,0
2017-04-17T08:18:39.194Z,0
2017-04-17T08:19:51.921Z,0
2017-04-17T08:21:04.636Z,0
2017-04-17T08:22:17.822Z,0
2017-04-17T08:23:30.564Z,0
2017-04-17T08:24:43.816Z,0
2017-04-17T08:25:57.101Z,0
2017-04-17T08:27:10.365Z,0
2017-04-17T08:28:23.070Z,0
2017-04-17T08:29:36.285Z,0
2017-04-17T08:30:49.772Z,0
2017-04-17T08:32:03.070Z,0
2017-04-17T08:33:15.787Z,0
2017-04-17T08:34:29.008Z,0
2017-04-17T08:35:42.241Z,0
2017-04-17T08:36:55.454Z,0
2017-04-17T08:38:08.700Z,0
2017-04-17T08:39:21.961Z,0
2017-04-17T08:40:35.262Z,0
2017-04-17T08:41:47.964Z,0
2017-04-17T08:43:01.210Z,0
2017-04-17T08:44:13.947Z,0
2017-04-17T08:45:26.670Z,0
2017-04-17T08:46:39.881Z,0
2017-04-17T08:47:53.185Z,0
2017-04-17T08:49:06.417Z,0
2017-04-17T08:50:19.667Z,0
2017-04-17T08:51:32.900Z,0
2017-04-17T08:52:46.125Z,0
2017-04-17T08:53:58.814Z,0
2017-04-17T08:55:12.047Z,0
2017-04-17T08:56:25.300Z,0
2017-04-17T08:57:38.588Z,0
2017-04-17T08:58:51.818Z,0
2017-04-17T09:00:05.090Z,0
2017-04-17T09:01:17.837Z,0
2017-04-17T09:02:31.314Z,0
2017-04-17T09:03:44.780Z,4
2017-04-17T09:04:57.997Z,4
2017-04-17T09:06:10.701Z,0
2017-04-17T09:07:23.955Z,4
2017-04-17T09:08:36.685Z,4
2017-04-17T09:09:49.936Z,4
2017-04-17T09:11:03.188Z,8
2017-04-17T09:12:15.906Z,12
2017-04-17T09:13:29.139Z,16
2017-04-17T09:14:42.411Z,20
2017-04-17T09:15:55.712Z,24
2017-04-17T09:17:08.996Z,36
2017-04-17T09:18:21.184Z,48
2017-04-17T09:19:34.683Z,60
2017-04-17T09:20:48.158Z,72
2017-04-17T09:22:01.415Z,88
2017-04-17T09:23:14.679Z,104
2017-04-17T09:24:27.397Z,112
2017-04-17T09:25:40.654Z,132
2017-04-17T09:26:53.897Z,156
2017-04-17T09:28:07.156Z,176
2017-04-17T09:29:19.868Z,204
2017-04-17T09:30:33.582Z,232
2017-04-17T09:31:47.505Z,252
2017-04-17T09:33:01.483Z,256
2017-04-17T09:34:15.431Z,256
2017-04-17T09:35:29.382Z,256
2017-04-17T09:36:42.201Z,264
2017-04-17T09:37:56.170Z,312
2017-04-17T09:39:10.125Z,348
2017-04-17T09:40:24.090Z,372
2017-04-17T09:41:38.025Z,352
2017-04-17T09:42:51.937Z,336
2017-04-17T09:44:05.894Z,332
2017-04-17T09:45:18.713Z,344
2017-04-17T09:46:32.661Z,368
2017-04-17T09:47:46.643Z,408
2017-04-17T09:49:00.593Z,436
2017-04-17T09:50:14.538Z,508
2017-04-17T09:51:28.592Z,624
2017-04-17T09:52:42.523Z,728
2017-04-17T09:53:56.477Z,780
2017-04-17T09:55:09.884Z,804
2017-04-17T09:56:23.264Z,872
2017-04-17T09:57:37.252Z,916
2017-04-17T09:58:50.679Z,940
2017-04-17T10:00:04.632Z,984
2017-04-17T10:01:18.028Z,1096
2017-04-17T10:02:31.404Z,1236
2017-04-17T10:03:45.336Z,1380
2017-04-17T10:04:59.316Z,1488
2017-04-17T10:06:13.265Z,1572
2017-04-17T10:07:27.190Z,1660
2017-04-17T10:08:41.144Z,1776
2017-04-17T10:09:55.049Z,1968
2017-04-17T10:11:08.451Z,2260
2017-04-17T10:12:21.811Z,2608
2017-04-17T10:13:35.725Z,3040
2017-04-17T10:14:49.074Z,3512
2017-04-17T10:16:02.993Z,3976
2017-04-17T10:17:16.951Z,4332
2017-04-17T10:18:30.342Z,4676
2017-04-17T10:19:44.437Z,4956
2017-04-17T10:20:57.841Z,5320
2017-04-17T10:22:11.815Z,5568
2017-04-17T10:23:25.785Z,5812
2017-04-17T10:24:39.741Z,5980
2017-04-17T10:25:53.682Z,6012
2017-04-17T10:27:07.102Z,5940
2017-04-17T10:28:21.036Z,5692
2017-04-17T10:29:34.937Z,5340
2017-04-17T10:30:48.842Z,5064
2017-04-17T10:32:02.733Z,5120
2017-04-17T10:33:16.698Z,5344
2017-04-17T10:34:30.800Z,5624
2017-04-17T10:35:44.711Z,5976
2017-04-17T10:36:58.673Z,6540
2017-04-17T10:38:12.644Z,6984
2017-04-17T10:39:26.081Z,7396
2017-04-17T10:40:40.046Z,7692
2017-04-17T10:41:53.987Z,7808
2017-04-17T10:43:07.352Z,7920
2017-04-17T10:44:20.750Z,7932
2017-04-17T10:45:34.726Z,7852
2017-04-17T10:46:48.105Z,7808
2017-04-17T10:48:02.035Z,7732
2017-04-17T10:49:15.429Z,7576
2017-04-17T10:50:29.492Z,7356
2017-04-17T10:51:42.879Z,7272
2017-04-17T10:52:56.832Z,7324
2017-04-17T10:54:10.774Z,7332
2017-04-17T10:55:24.705Z,7136
2017-04-17T10:56:38.627Z,6724
2017-04-17T10:57:52.572Z,6160
2017-04-17T10:59:06.530Z,5624
2017-04-17T11:00:20.438Z,5360
2017-04-17T11:01:34.377Z,5508
2017-04-17T11:02:48.674Z,5920
2017-04-17T11:04:02.883Z,6300
2017-04-17T11:05:16.842Z,6444
2017-04-17T11:06:30.813Z,6348
2017-04-17T11:07:44.752Z,6028
2017-04-17T11:08:58.694Z,5880
2017-04-17T11:10:12.087Z,6112
2017-04-17T11:11:26.036Z,6632
2017-04-17T11:12:39.435Z,7412
2017-04-17T11:13:53.369Z,8284
2017-04-17T11:15:07.339Z,9016
2017-04-17T11:16:20.734Z,9384
2017-04-17T11:17:34.848Z,9692
2017-04-17T11:18:48.980Z,10428
2017-04-17T11:20:02.940Z,11492
2017-04-17T11:21:16.910Z,12664
2017-04-17T11:22:30.300Z,13800
2017-04-17T11:23:44.276Z,14680
2017-04-17T11:24:57.703Z,15716
2017-04-17T11:26:11.643Z,17100
2017-04-17T11:27:25.601Z,18656
2017-04-17T11:28:58.682Z,19392
2017-04-17T11:30:12.558Z,18912
2017-04-17T11:31:25.489Z,18240
2017-04-17T11:32:38.728Z,16936
2017-04-17T11:33:51.947Z,15084
2017-04-17T11:35:05.279Z,12776
2017-04-17T11:36:18.490Z,10876
2017-04-17T11:37:31.718Z,10016
2017-04-17T11:38:44.962Z,10052
2017-04-17T11:39:58.239Z,10808
2017-04-17T11:41:11.523Z,12064
2017-04-17T11:42:24.770Z,13904
2017-04-17T11:43:38.093Z,16072
2017-04-17T11:44:50.805Z,17728
2017-04-17T11:46:03.601Z,19072
2017-04-17T11:47:16.816Z,19968
2017-04-17T11:48:29.542Z,20288
2017-04-17T11:49:42.800Z,19680
2017-04-17T11:50:56.414Z,18784
2017-04-17T11:52:09.685Z,18240
2017-04-17T11:53:22.426Z,18432
2017-04-17T11:54:35.137Z,20160
2017-04-17T11:55:47.877Z,22368
2017-04-17T11:57:01.119Z,22176
2017-04-17T11:58:14.393Z,20832
2017-04-17T11:59:27.633Z,19168
2017-04-17T12:00:41.141Z,17484
2017-04-17T12:01:54.749Z,15628
2017-04-17T12:03:08.099Z,14844
2017-04-17T12:04:21.362Z,15612
2017-04-17T12:05:34.111Z,15228
2017-04-17T12:06:46.888Z,15764
2017-04-17T12:07:59.602Z,16992
2017-04-17T12:09:12.881Z,15112
2017-04-17T12:10:26.177Z,13228
2017-04-17T12:11:39.374Z,12452
2017-04-17T12:12:52.609Z,13312
2017-04-17T12:14:05.840Z,18944
2017-04-17T12:15:19.125Z,32128
2017-04-17T12:16:32.371Z,39264
2017-04-17T12:17:45.118Z,40160
2017-04-17T12:18:58.092Z,42496
2017-04-17T12:20:11.420Z,41632
2017-04-17T12:21:24.664Z,39680
2017-04-17T12:22:37.879Z,40384
2017-04-17T12:23:50.311Z,45536
2017-04-17T12:25:03.532Z,48320
2017-04-17T12:26:16.772Z,42784
2017-04-17T12:27:30.000Z,38400
2017-04-17T12:28:43.254Z,43072
2017-04-17T12:29:56.000Z,41792
2017-04-17T12:31:09.268Z,38400
2017-04-17T12:32:22.517Z,34400
2017-04-17T12:33:35.869Z,30656
2017-04-17T12:34:49.093Z,27616
2017-04-17T12:36:02.602Z,25920
2017-04-17T12:37:15.883Z,25280
2017-04-17T12:38:29.161Z,26176
2017-04-17T12:39:42.427Z,27616
2017-04-17T12:40:55.171Z,34688
2017-04-17T12:42:08.423Z,40640
2017-04-17T12:43:21.628Z,40864
2017-04-17T12:44:34.872Z,37600
2017-04-17T12:45:47.574Z,39040
2017-04-17T12:47:00.810Z,34144
2017-04-17T12:48:14.038Z,31072
2017-04-17T12:49:26.764Z,27520
2017-04-17T12:50:39.990Z,29376
2017-04-17T12:51:52.829Z,33568
2017-04-17T12:53:06.119Z,31744
2017-04-17T12:54:19.400Z,29280
2017-04-17T12:55:32.133Z,27776
2017-04-17T12:56:45.418Z,25408
2017-04-17T12:57:58.647Z,21376
2017-04-17T12:59:11.924Z,17280
2017-04-17T13:00:24.686Z,15480
2017-04-17T13:01:37.901Z,14816
2017-04-17T13:02:50.629Z,14152
2017-04-17T13:04:03.884Z,13028
2017-04-17T13:05:16.639Z,11772
2017-04-17T13:06:29.876Z,10300
2017-04-17T13:07:42.594Z,10008
2017-04-17T13:08:55.315Z,11368
2017-04-17T13:10:08.653Z,14052
2017-04-17T13:11:21.966Z,15676
2017-04-17T13:12:34.690Z,16940
2017-04-17T13:13:47.926Z,19808
2017-04-17T13:15:01.220Z,21888
2017-04-17T13:16:13.963Z,24864
2017-04-17T13:17:27.197Z,30816
2017-04-17T13:18:39.924Z,31136
2017-04-17T13:19:53.143Z,28416
2017-04-17T13:21:06.383Z,26368
2017-04-17T13:22:19.609Z,23680
2017-04-17T13:23:32.850Z,21088
2017-04-17T13:24:45.638Z,19488
2017-04-17T13:25:59.131Z,20736
2017-04-17T13:27:12.562Z,23456
2017-04-17T13:28:25.803Z,26880
2017-04-17T13:29:39.048Z,30176
2017-04-17T13:30:52.302Z,32352
2017-04-17T13:32:05.530Z,32992
2017-04-17T13:33:18.786Z,32320
2017-04-17T13:34:32.048Z,32096
2017-04-17T13:35:45.305Z,32128
2017-04-17T13:36:58.569Z,31136
2017-04-17T13:38:11.791Z,26720
2017-04-17T13:39:25.026Z,22944
2017-04-17T13:40:38.268Z,20320
2017-04-17T13:41:50.996Z,18912
2017-04-17T13:43:04.278Z,19744
2017-04-17T13:44:17.528Z,22336
2017-04-17T13:45:30.782Z,24576
2017-04-17T13:46:44.025Z,25344
2017-04-17T13:47:57.302Z,22816
2017-04-17T13:49:10.038Z,20576
2017-04-17T13:50:23.261Z,16956
2017-04-17T13:51:36.522Z,13596
2017-04-17T13:52:49.501Z,13788
2017-04-17T13:54:03.091Z,16644
2017-04-17T13:55:16.309Z,19424
2017-04-17T13:56:29.566Z,20672
2017-04-17T13:57:42.983Z,23264
2017-04-17T13:58:56.260Z,28480
2017-04-17T14:00:08.977Z,33472
2017-04-17T14:01:22.257Z,40192
2017-04-17T14:03:06.673Z,48416
2017-04-17T14:04:19.914Z,52576
2017-04-17T14:05:33.171Z,58880
2017-04-17T14:06:46.088Z,56992
2017-04-17T14:07:59.471Z,56064
2017-04-17T14:09:12.750Z,49600
2017-04-17T14:10:25.519Z,46144
2017-04-17T14:11:38.760Z,40576
2017-04-17T14:12:51.022Z,33824
2017-04-17T14:14:04.267Z,37344
2017-04-17T14:15:16.990Z,39936
2017-04-17T14:16:30.201Z,36512
2017-04-17T14:17:42.975Z,32224
2017-04-17T14:18:56.211Z,28800
2017-04-17T14:20:08.959Z,25984
2017-04-17T14:21:21.173Z,25152
2017-04-17T14:22:33.384Z,29056
2017-04-17T14:23:46.138Z,30112
2017-04-17T14:24:59.623Z,29408
2017-04-17T14:26:12.857Z,30208
2017-04-17T14:27:26.109Z,31040
2017-04-17T14:28:38.854Z,31456
2017-04-17T14:29:52.081Z,30208
2017-04-17T14:31:04.820Z,29472
2017-04-17T14:32:18.092Z,28960
2017-04-17T14:33:31.361Z,29088
2017-04-17T14:34:44.631Z,31296
2017-04-17T14:35:57.865Z,33888
2017-04-17T14:37:10.622Z,36960
2017-04-17T14:38:23.376Z,40672
2017-04-17T14:39:36.616Z,44576
2017-04-17T14:40:50.579Z,49248
2017-04-17T14:42:04.557Z,53696
2017-04-17T14:43:18.495Z,55520
2017-04-17T14:44:32.443Z,58944
2017-04-17T14:45:46.390Z,59584
2017-04-17T14:47:00.363Z,56384
2017-04-17T14:48:14.314Z,60192
2017-04-17T14:49:28.360Z,66496
2017-04-17T14:50:42.359Z,86112
2017-04-17T14:51:55.199Z,73472
2017-04-17T14:53:09.158Z,47296
2017-04-17T14:54:23.128Z,55488
2017-04-17T14:55:37.084Z,49920
2017-04-17T14:56:51.090Z,61024
2017-04-17T14:58:05.291Z,69280
2017-04-17T14:59:19.228Z,71136
2017-04-17T15:00:33.182Z,60160
2017-04-17T15:01:47.158Z,56192
2017-04-17T15:03:00.575Z,52224
2017-04-17T15:04:14.523Z,51072
2017-04-17T15:05:28.473Z,50464
2017-04-17T15:06:42.462Z,49408
2017-04-17T15:07:56.449Z,47680
2017-04-17T15:09:10.485Z,45664
2017-04-17T15:10:23.916Z,42016
2017-04-17T15:11:37.940Z,39072
2017-04-17T15:12:51.933Z,36768
2017-04-17T15:14:05.895Z,34304
2017-04-17T15:15:19.851Z,29376
2017-04-17T15:16:33.808Z,26688
2017-04-17T15:17:47.764Z,27712
2017-04-17T15:19:01.747Z,30784
2017-04-17T15:20:15.141Z,36224
2017-04-17T15:21:29.069Z,36480
2017-04-17T15:22:42.471Z,35232
2017-04-17T15:23:56.437Z,32160
2017-04-17T15:25:10.446Z,36256
2017-04-17T15:26:24.386Z,37824
2017-04-17T15:27:38.308Z,34048
2017-04-17T15:28:52.245Z,32928
2017-04-17T15:30:06.200Z,27776
2017-04-17T15:31:19.008Z,22304
2017-04-17T15:32:32.195Z,23232
2017-04-17T15:33:45.634Z,29568
2017-04-17T15:34:59.567Z,32064
2017-04-17T15:36:13.502Z,26464
2017-04-17T15:37:27.439Z,25056
2017-04-17T15:38:40.835Z,25024
2017-04-17T15:39:54.218Z,21728
2017-04-17T15:41:08.154Z,20160
2017-04-17T15:42:22.077Z,20832
2017-04-17T15:43:35.448Z,21184
2017-04-17T15:44:49.393Z,23552
2017-04-17T15:46:03.314Z,24544
2017-04-17T15:47:17.328Z,19200
2017-04-17T15:48:31.296Z,13880
2017-04-17T15:49:44.676Z,10880
2017-04-17T15:50:58.631Z,8880
2017-04-17T15:52:12.579Z,7540
2017-04-17T15:53:26.051Z,6556
2017-04-17T15:54:39.333Z,6612
2017-04-17T15:55:52.040Z,8836
2017-04-17T15:57:05.283Z,10376
2017-04-17T15:58:18.745Z,11988
2017-04-17T15:59:32.205Z,12112
2017-04-17T16:00:44.922Z,12252
2017-04-17T16:01:58.144Z,13564
2017-04-17T16:03:11.394Z,15988
2017-04-17T16:04:24.604Z,19712
2017-04-17T16:05:37.859Z,22560
2017-04-17T16:06:51.106Z,25568
2017-04-17T16:08:03.832Z,29024
2017-04-17T16:09:16.559Z,32736
2017-04-17T16:10:29.810Z,34240
2017-04-17T16:11:43.051Z,29056
2017-04-17T16:12:55.757Z,24352
2017-04-17T16:14:08.997Z,22112
2017-04-17T16:15:22.237Z,18784
2017-04-17T16:16:34.963Z,21408
2017-04-17T16:17:47.699Z,21952
2017-04-17T16:19:00.487Z,20960
2017-04-17T16:20:13.712Z,18880
2017-04-17T16:21:26.955Z,15636
2017-04-17T16:22:40.178Z,14324
2017-04-17T16:23:53.424Z,15268
2017-04-17T16:25:06.163Z,13796
2017-04-17T16:26:18.870Z,15768
2017-04-17T16:27:32.091Z,20352
2017-04-17T16:28:44.822Z,23360
2017-04-17T16:29:58.105Z,23424
2017-04-17T16:31:11.372Z,19680
2017-04-17T16:32:24.135Z,16204
2017-04-17T16:33:37.412Z,16284
2017-04-17T16:34:50.667Z,16148
2017-04-17T16:36:03.939Z,17096
2017-04-17T16:37:17.197Z,17600
2017-04-17T16:38:30.434Z,18944
2017-04-17T16:39:43.695Z,21792
2017-04-17T16:40:57.272Z,27488
2017-04-17T16:42:10.691Z,34880
2017-04-17T16:43:23.913Z,44192
2017-04-17T16:44:36.120Z,51808
2017-04-17T16:45:49.369Z,54688
2017-04-17T16:47:02.606Z,47296
2017-04-17T16:48:15.832Z,48576
2017-04-17T16:49:29.064Z,48288
2017-04-17T16:50:42.304Z,50368
2017-04-17T16:51:55.536Z,51776
2017-04-17T16:53:08.803Z,58048
2017-04-17T16:54:22.036Z,106880
2017-04-17T16:55:35.300Z,73408
2017-04-17T16:56:48.535Z,63840
2017-04-17T16:58:01.818Z,52064
2017-04-17T16:59:15.093Z,50784
2017-04-17T17:00:28.368Z,41856
2017-04-17T17:01:41.601Z,49248